createdAt,value
2017-09-05T00:01:39.982Z,6.10
2017-09-05T00:04:07.649Z,6.37
2017-09-05T00:06:35.328Z,6.13
2017-09-05T00:09:07.722Z,6.03
2017-09-05T00:11:36.219Z,6.20
2017-09-05T00:14:12.134Z,6.37
2017-09-05T00:16:44.783Z,5.33
2017-09-05T00:19:17.995Z,6.13
2017-09-05T00:21:50.629Z,7.30
2017-09-05T00:24:18.254Z,5.83
2017-09-05T00:26:45.882Z,6.43
2017-09-05T00:29:13.531Z,7.20
2017-09-05T00:31:41.213Z,6.70
2017-09-05T00:34:08.837Z,7.70
2017-09-05T00:36:36.468Z,7.00
2017-09-05T00:39:04.118Z,5.90
2017-09-05T00:41:31.793Z,6.87
2017-09-05T00:43:59.453Z,7.50
2017-09-05T00:46:27.101Z,7.13
2017-09-05T00:48:54.738Z,6.10
2017-09-05T00:51:22.386Z,7.43
2017-09-05T00:53:50.072Z,6.33
2017-09-05T00:56:17.753Z,6.97
2017-09-05T00:58:45.382Z,6.80
2017-09-05T01:01:13.002Z,6.80
2017-09-05T01:03:40.658Z,7.50
2017-09-05T01:06:08.282Z,5.30
2017-09-05T01:08:35.938Z,4.73
2017-09-05T01:11:03.552Z,4.77
2017-09-05T01:13:31.366Z,4.97
2017-09-05T01:15:59.024Z,4.83
2017-09-05T01:18:26.690Z,6.10
2017-09-05T01:20:54.360Z,7.07
2017-09-05T01:23:22.002Z,7.07
2017-09-05T01:25:49.648Z,6.90
2017-09-05T01:28:17.302Z,5.40
2017-09-05T01:30:44.936Z,4.73
2017-09-05T01:33:12.661Z,6.80
2017-09-05T01:35:40.284Z,7.60
2017-09-05T01:38:07.943Z,6.43
2017-09-05T01:40:35.661Z,7.10
2017-09-05T01:43:03.284Z,8.00
2017-09-05T01:45:30.953Z,7.37
2017-09-05T01:47:58.564Z,6.40
2017-09-05T01:50:26.204Z,6.63
2017-09-05T01:52:53.851Z,7.13
2017-09-05T01:55:21.492Z,7.73
2017-09-05T01:57:49.162Z,7.13
2017-09-05T02:00:16.789Z,7.93
2017-09-05T02:02:44.422Z,7.57
2017-09-05T02:05:12.093Z,6.10
2017-09-05T02:07:39.740Z,6.20
2017-09-05T02:10:07.511Z,7.00
2017-09-05T02:12:35.374Z,6.50
2017-09-05T02:15:03.013Z,6.60
2017-09-05T02:17:30.781Z,6.83
2017-09-05T02:19:58.414Z,7.17
2017-09-05T02:22:26.056Z,7.10
2017-09-05T02:24:53.768Z,7.43
2017-09-05T02:27:21.452Z,7.43
2017-09-05T02:29:49.107Z,7.37
2017-09-05T02:32:16.753Z,6.67
2017-09-05T02:34:44.439Z,7.07
2017-09-05T02:37:12.178Z,7.77
2017-09-05T02:39:39.833Z,7.13
2017-09-05T02:42:07.518Z,6.70
2017-09-05T02:44:35.160Z,6.73
2017-09-05T02:47:02.827Z,6.20
2017-09-05T02:49:30.473Z,7.50
2017-09-05T02:51:58.252Z,8.23
2017-09-05T02:54:25.876Z,6.40
2017-09-05T02:56:53.507Z,4.33
2017-09-05T02:59:21.260Z,7.13
2017-09-05T03:01:48.885Z,8.13
2017-09-05T03:04:16.662Z,7.90
2017-09-05T03:06:44.426Z,7.17
2017-09-05T03:09:12.047Z,7.40
2017-09-05T03:11:39.852Z,7.00
2017-09-05T03:14:07.481Z,6.73
2017-09-05T03:16:35.162Z,6.70
2017-09-05T03:19:02.817Z,6.70
2017-09-05T03:21:30.453Z,6.60
2017-09-05T03:23:58.109Z,7.67
2017-09-05T03:26:25.755Z,6.70
2017-09-05T03:28:53.419Z,6.90
2017-09-05T03:31:21.073Z,6.80
2017-09-05T03:33:48.696Z,6.10
2017-09-05T03:36:16.341Z,6.87
2017-09-05T03:38:44.139Z,7.50
2017-09-05T03:41:11.911Z,6.40
2017-09-05T03:43:39.523Z,7.03
2017-09-05T03:46:07.238Z,6.70
2017-09-05T03:48:34.908Z,6.93
2017-09-05T03:51:02.523Z,6.13
2017-09-05T03:53:30.309Z,7.67
2017-09-05T03:55:57.987Z,6.47
2017-09-05T03:58:25.615Z,7.00
2017-09-05T04:00:53.267Z,6.90
2017-09-05T04:03:20.894Z,7.43
2017-09-05T04:05:48.563Z,7.77
2017-09-05T04:08:16.180Z,7.77
2017-09-05T04:10:43.838Z,8.60
2017-09-05T04:13:11.495Z,7.40
2017-09-05T04:15:39.265Z,8.47
2017-09-05T04:18:07.033Z,7.53
2017-09-05T04:20:34.665Z,7.70
2017-09-05T04:23:02.282Z,7.43
2017-09-05T04:25:30.031Z,8.90
2017-09-05T04:27:57.650Z,7.70
2017-09-05T04:30:25.576Z,8.50
2017-09-05T04:32:53.225Z,8.27
2017-09-05T04:35:20.850Z,7.40
2017-09-05T04:37:48.551Z,7.77
2017-09-05T04:40:16.293Z,7.47
2017-09-05T04:42:43.977Z,7.93
2017-09-05T04:45:11.637Z,7.93
2017-09-05T04:47:39.381Z,8.30
2017-09-05T04:50:07.031Z,8.70
2017-09-05T04:52:34.806Z,7.20
2017-09-05T04:55:02.484Z,9.63
2017-09-05T04:57:30.128Z,7.30
2017-09-05T04:59:57.744Z,7.73
2017-09-05T05:02:25.426Z,8.90
2017-09-05T05:04:53.067Z,9.30
2017-09-05T05:07:20.777Z,7.77
2017-09-05T05:09:48.470Z,7.70
2017-09-05T05:12:16.109Z,10.43
2017-09-05T05:14:43.821Z,7.90
2017-09-05T05:17:11.446Z,9.50
2017-09-05T05:19:39.191Z,9.07
2017-09-05T05:22:06.819Z,9.67
2017-09-05T05:24:34.476Z,9.93
2017-09-05T05:27:02.120Z,7.33
2017-09-05T05:29:29.765Z,8.67
2017-09-05T05:31:57.433Z,10.90
2017-09-05T05:34:25.053Z,6.83
2017-09-05T05:36:52.698Z,10.53
2017-09-05T05:39:20.376Z,10.33
2017-09-05T05:41:48.084Z,10.13
2017-09-05T05:44:15.778Z,10.60
2017-09-05T05:46:43.425Z,8.87
2017-09-05T05:49:11.050Z,11.13
2017-09-05T05:51:38.695Z,9.87
2017-09-05T05:54:06.357Z,10.93
2017-09-05T05:56:34.032Z,11.73
2017-09-05T05:59:01.705Z,12.27
2017-09-05T06:01:29.549Z,12.30
2017-09-05T06:03:57.196Z,9.57
2017-09-05T06:06:24.876Z,12.13
2017-09-05T06:08:52.536Z,11.27
2017-09-05T06:11:20.183Z,13.03
2017-09-05T06:13:47.966Z,11.63
2017-09-05T06:16:15.822Z,10.77
2017-09-05T06:18:43.466Z,10.20
2017-09-05T06:21:11.135Z,13.20
2017-09-05T06:23:38.747Z,9.70
2017-09-05T06:26:06.417Z,14.03
2017-09-05T06:28:34.955Z,13.80
2017-09-05T06:31:02.580Z,10.97
2017-09-05T06:33:30.312Z,11.33
2017-09-05T06:35:58.037Z,13.43
2017-09-05T06:38:25.703Z,13.63
2017-09-05T06:40:53.338Z,11.70
2017-09-05T06:43:20.973Z,12.47
2017-09-05T06:45:48.708Z,9.27
2017-09-05T06:48:16.470Z,13.87
2017-09-05T06:50:44.137Z,13.70
2017-09-05T06:53:11.795Z,12.73
2017-09-05T06:55:39.437Z,11.47
2017-09-05T06:58:07.102Z,14.47
2017-09-05T07:00:34.752Z,13.63
2017-09-05T07:03:02.422Z,15.47
2017-09-05T07:05:30.289Z,13.30
2017-09-05T07:07:57.929Z,13.17
2017-09-05T07:10:25.596Z,13.20
2017-09-05T07:12:53.226Z,8.80
2017-09-05T07:15:20.948Z,10.37
2017-09-05T07:17:48.603Z,15.80
2017-09-05T07:20:16.366Z,15.53
2017-09-05T07:22:44.030Z,14.43
2017-09-05T07:25:11.789Z,11.93
2017-09-05T07:27:39.461Z,12.73
2017-09-05T07:30:07.218Z,9.07
2017-09-05T07:32:34.892Z,15.30
2017-09-05T07:35:02.543Z,8.30
2017-09-05T07:37:30.184Z,10.87
2017-09-05T07:39:57.981Z,11.50
2017-09-05T07:42:25.642Z,9.17
2017-09-05T07:44:53.411Z,9.83
2017-09-05T07:47:21.158Z,12.07
2017-09-05T07:49:48.925Z,12.27
2017-09-05T07:52:16.593Z,9.40
2017-09-05T07:54:44.448Z,7.80
2017-09-05T07:57:12.234Z,11.20
2017-09-05T07:59:39.994Z,9.10
2017-09-05T08:02:07.649Z,7.37
2017-09-05T08:04:35.435Z,7.33
2017-09-05T08:07:03.061Z,15.23
2017-09-05T08:09:30.718Z,8.97
2017-09-05T08:11:58.516Z,15.60
2017-09-05T08:14:26.368Z,6.60
2017-09-05T08:16:54.144Z,14.50
2017-09-05T08:19:21.989Z,11.10
2017-09-05T08:21:49.639Z,9.60
2017-09-05T08:24:17.414Z,14.00
2017-09-05T08:26:45.080Z,8.87
2017-09-05T08:29:12.866Z,9.17
2017-09-05T08:31:40.704Z,15.40
2017-09-05T08:34:08.343Z,13.57
2017-09-05T08:36:35.985Z,9.43
2017-09-05T08:39:03.632Z,8.27
2017-09-05T08:41:31.355Z,8.60
2017-09-05T08:43:59.024Z,12.57
2017-09-05T08:46:26.782Z,13.30
2017-09-05T08:48:54.465Z,8.83
2017-09-05T08:51:22.236Z,12.00
2017-09-05T08:53:49.882Z,9.90
2017-09-05T08:56:17.536Z,8.70
2017-09-05T08:58:45.318Z,11.33
2017-09-05T09:01:13.063Z,9.43
2017-09-05T09:03:40.735Z,14.87
2017-09-05T09:06:08.386Z,9.10
2017-09-05T09:08:36.018Z,12.37
2017-09-05T09:11:03.680Z,11.33
2017-09-05T09:13:31.305Z,9.87
2017-09-05T09:15:58.988Z,9.20
2017-09-05T09:18:26.623Z,7.33
2017-09-05T09:20:54.256Z,14.53
2017-09-05T09:23:21.930Z,11.97
2017-09-05T09:25:49.594Z,11.20
2017-09-05T09:28:17.285Z,12.80
2017-09-05T09:30:44.927Z,11.30
2017-09-05T09:33:12.596Z,13.50
2017-09-05T09:35:40.365Z,6.20
2017-09-05T09:38:08.023Z,8.63
2017-09-05T09:40:35.694Z,9.13
2017-09-05T09:43:04.111Z,8.27
2017-09-05T09:45:31.739Z,8.20
2017-09-05T09:47:59.431Z,11.70
2017-09-05T09:50:27.063Z,6.37
2017-09-05T09:52:54.754Z,7.03
2017-09-05T09:55:22.418Z,10.83
2017-09-05T09:57:50.040Z,8.23
2017-09-05T10:00:17.711Z,7.40
2017-09-05T10:02:45.345Z,11.03
2017-09-05T10:05:13.033Z,7.90
2017-09-05T10:07:40.676Z,9.20
2017-09-05T10:10:08.305Z,9.93
2017-09-05T10:12:35.990Z,10.97
2017-09-05T10:15:03.635Z,11.93
2017-09-05T10:17:31.296Z,8.87
2017-09-05T10:19:58.957Z,12.63
2017-09-05T10:22:26.614Z,12.30
2017-09-05T10:24:54.288Z,9.20
2017-09-05T10:27:21.916Z,8.90
2017-09-05T10:29:49.590Z,9.93
2017-09-05T10:32:17.235Z,10.67
2017-09-05T10:34:44.860Z,8.53
2017-09-05T10:37:12.545Z,9.20
2017-09-05T10:39:40.185Z,7.47
2017-09-05T10:42:07.891Z,7.00
2017-09-05T10:44:35.524Z,5.40
2017-09-05T10:47:03.404Z,6.33
2017-09-05T10:49:31.199Z,5.53
2017-09-05T10:51:58.917Z,8.30
2017-09-05T10:54:26.646Z,7.77
2017-09-05T10:56:54.653Z,8.37
2017-09-05T10:59:22.425Z,6.40
2017-09-05T11:01:50.093Z,6.40
2017-09-05T11:04:17.910Z,6.63
2017-09-05T11:06:45.874Z,5.97
2017-09-05T11:09:13.639Z,4.73
2017-09-05T11:11:41.462Z,5.57
2017-09-05T11:14:09.369Z,4.40
2017-09-05T11:16:37.176Z,5.03
2017-09-05T11:19:04.945Z,4.83
2017-09-05T11:21:32.751Z,4.27
2017-09-05T11:24:00.616Z,4.10
2017-09-05T11:26:28.481Z,4.90
2017-09-05T11:28:56.176Z,5.60
2017-09-05T11:31:24.003Z,5.73
2017-09-05T11:33:51.781Z,4.60
2017-09-05T11:36:19.501Z,5.00
2017-09-05T11:38:47.173Z,5.03
2017-09-05T11:41:14.948Z,4.30
2017-09-05T11:43:42.709Z,4.90
2017-09-05T11:46:10.431Z,4.37
2017-09-05T11:48:38.173Z,4.73
2017-09-05T11:51:05.882Z,4.33
2017-09-05T11:53:33.565Z,4.60
2017-09-05T11:56:01.331Z,5.60
2017-09-05T11:58:29.016Z,4.70
2017-09-05T12:00:56.706Z,4.53
2017-09-05T12:03:24.448Z,4.20
2017-09-05T12:05:52.155Z,3.37
2017-09-05T12:08:19.910Z,4.93
2017-09-05T12:10:47.616Z,3.90
2017-09-05T12:13:15.303Z,3.93
2017-09-05T12:15:43.019Z,4.77
2017-09-05T12:18:10.713Z,3.57
2017-09-05T12:20:38.493Z,4.23
2017-09-05T12:23:06.217Z,4.00
2017-09-05T12:25:33.904Z,4.00
2017-09-05T12:28:01.686Z,4.50
2017-09-05T12:30:29.450Z,4.23
2017-09-05T12:32:57.269Z,4.00
2017-09-05T12:35:24.957Z,4.33
2017-09-05T12:37:52.614Z,4.00
2017-09-05T12:40:20.326Z,4.03
2017-09-05T12:42:48.043Z,4.80
2017-09-05T12:45:15.776Z,4.57
2017-09-05T12:47:43.490Z,4.40
2017-09-05T12:50:11.149Z,4.03
2017-09-05T12:52:38.907Z,4.47
2017-09-05T12:55:06.667Z,5.10
2017-09-05T12:57:34.418Z,4.60
2017-09-05T13:00:02.146Z,4.40
2017-09-05T13:02:29.796Z,4.00
2017-09-05T13:04:57.571Z,3.70
2017-09-05T13:07:25.327Z,3.90
2017-09-05T13:09:52.990Z,3.70
2017-09-05T13:12:20.755Z,4.20
2017-09-05T13:14:48.449Z,4.00
2017-09-05T13:17:16.218Z,3.60
2017-09-05T13:19:43.934Z,3.50
2017-09-05T13:22:11.590Z,3.90
2017-09-05T13:24:39.295Z,3.50
2017-09-05T13:27:06.994Z,3.70
2017-09-05T13:29:34.749Z,4.00
2017-09-05T13:32:02.454Z,3.37
2017-09-05T13:34:30.160Z,3.53
2017-09-05T13:36:57.858Z,3.33
2017-09-05T13:39:25.509Z,3.20
2017-09-05T13:41:53.157Z,3.23
2017-09-05T13:44:20.889Z,3.10
2017-09-05T13:46:48.577Z,2.87
2017-09-05T13:49:16.352Z,3.57
2017-09-05T13:51:44.071Z,3.40
2017-09-05T13:54:11.870Z,3.30
2017-09-05T13:56:39.644Z,3.67
2017-09-05T13:59:07.308Z,3.73
2017-09-05T14:01:35.010Z,3.30
2017-09-05T14:04:02.734Z,3.30
2017-09-05T14:06:30.498Z,3.43
2017-09-05T14:08:58.246Z,3.90
2017-09-05T14:11:25.977Z,3.07
2017-09-05T14:13:53.662Z,3.70
2017-09-05T14:16:21.442Z,3.57
2017-09-05T14:18:49.153Z,3.37
2017-09-05T14:21:16.849Z,3.60
2017-09-05T14:23:44.529Z,3.60
2017-09-05T14:26:12.244Z,3.67
2017-09-05T14:28:40.015Z,4.00
2017-09-05T14:31:07.738Z,4.50
2017-09-05T14:33:35.427Z,3.77
2017-09-05T14:36:03.111Z,3.60
2017-09-05T14:38:30.803Z,3.57
2017-09-05T14:40:58.490Z,3.60
2017-09-05T14:43:26.429Z,3.70
2017-09-05T14:45:54.175Z,3.40
2017-09-05T14:48:22.034Z,3.63
2017-09-05T14:50:49.715Z,4.67
2017-09-05T14:53:17.448Z,3.77
2017-09-05T14:55:45.148Z,3.80
2017-09-05T14:58:12.864Z,3.10
2017-09-05T15:00:40.552Z,3.43
2017-09-05T15:03:08.297Z,3.30
2017-09-05T15:05:36.042Z,3.00
2017-09-05T15:08:03.731Z,3.60
2017-09-05T15:10:31.392Z,2.77
2017-09-05T15:12:59.210Z,4.23
2017-09-05T15:15:26.994Z,3.80
2017-09-05T15:17:54.848Z,3.03
2017-09-05T15:20:22.564Z,3.50
2017-09-05T15:22:50.304Z,3.60
2017-09-05T15:25:18.024Z,2.90
2017-09-05T15:27:45.716Z,3.10
2017-09-05T15:30:13.408Z,3.43
2017-09-05T15:32:41.112Z,3.40
2017-09-05T15:35:08.985Z,3.27
2017-09-05T15:37:36.711Z,3.07
2017-09-05T15:40:04.405Z,3.10
2017-09-05T15:42:32.126Z,3.53
2017-09-05T15:44:59.878Z,3.30
2017-09-05T15:47:27.677Z,2.80
2017-09-05T15:49:55.387Z,3.33
2017-09-05T15:52:23.127Z,3.30
2017-09-05T15:54:50.800Z,3.20
2017-09-05T15:57:18.562Z,3.50
2017-09-05T15:59:46.278Z,4.00
2017-09-05T16:02:13.989Z,3.47
2017-09-05T16:04:41.690Z,3.23
2017-09-05T16:07:09.416Z,3.40
2017-09-05T16:09:37.161Z,3.30
2017-09-05T16:12:04.934Z,3.30
2017-09-05T16:14:32.701Z,3.30
2017-09-05T16:17:00.533Z,2.80
2017-09-05T16:19:28.156Z,3.30
2017-09-05T16:21:55.878Z,3.20
2017-09-05T16:24:23.851Z,3.13
2017-09-05T16:26:51.668Z,3.27
2017-09-05T16:29:19.501Z,2.60
2017-09-05T16:31:47.182Z,3.13
2017-09-05T16:34:14.825Z,3.50
2017-09-05T16:36:42.570Z,3.27
2017-09-05T16:39:10.339Z,3.53
2017-09-05T16:41:38.106Z,3.43
2017-09-05T16:44:05.753Z,3.53
2017-09-05T16:46:33.383Z,3.27
2017-09-05T16:49:01.026Z,3.33
2017-09-05T16:51:28.681Z,3.23
2017-09-05T16:53:56.338Z,3.20
2017-09-05T16:56:23.982Z,3.00
2017-09-05T16:58:51.627Z,3.23
2017-09-05T17:01:19.304Z,3.40
2017-09-05T17:03:46.937Z,3.23
2017-09-05T17:06:14.609Z,3.73
2017-09-05T17:08:42.259Z,3.17
2017-09-05T17:11:09.924Z,3.50
2017-09-05T17:13:37.616Z,3.80
2017-09-05T17:16:06.115Z,3.50
2017-09-05T17:18:33.921Z,3.77
2017-09-05T17:21:01.550Z,3.90
2017-09-05T17:23:29.189Z,3.27
2017-09-05T17:25:56.844Z,3.50
2017-09-05T17:28:24.476Z,4.00
2017-09-05T17:30:52.154Z,3.70
2017-09-05T17:33:19.801Z,3.20
2017-09-05T17:35:47.436Z,3.87
2017-09-05T17:38:15.094Z,3.33
2017-09-05T17:40:42.811Z,3.40
2017-09-05T17:43:10.492Z,3.50
2017-09-05T17:45:38.153Z,3.07
2017-09-05T17:48:05.810Z,3.40
2017-09-05T17:50:33.610Z,2.70
2017-09-05T17:53:01.237Z,3.10
2017-09-05T17:55:28.917Z,3.33
2017-09-05T17:57:56.698Z,3.30
2017-09-05T18:00:24.311Z,3.70
2017-09-05T18:02:51.983Z,4.13
2017-09-05T18:05:19.632Z,3.60
2017-09-05T18:07:47.438Z,3.83
2017-09-05T18:10:15.854Z,4.13
2017-09-05T18:12:43.541Z,3.73
2017-09-05T18:15:11.216Z,3.33
2017-09-05T18:17:38.890Z,4.13
2017-09-05T18:20:06.576Z,4.03
2017-09-05T18:22:34.349Z,3.90
2017-09-05T18:25:01.981Z,3.00
2017-09-05T18:27:29.683Z,3.30
2017-09-05T18:29:57.318Z,4.00
2017-09-05T18:32:26.009Z,3.83
2017-09-05T18:34:54.468Z,4.40
2017-09-05T18:37:22.107Z,4.07
2017-09-05T18:39:49.929Z,3.67
2017-09-05T18:42:17.550Z,3.90
2017-09-05T18:44:45.253Z,4.33
2017-09-05T18:47:12.929Z,4.23
2017-09-05T18:49:40.573Z,4.20
2017-09-05T18:52:10.762Z,5.20
2017-09-05T18:54:38.554Z,3.43
2017-09-05T18:57:06.249Z,3.87
2017-09-05T18:59:34.031Z,3.67
2017-09-05T19:02:01.891Z,4.33
2017-09-05T19:04:29.682Z,3.97
2017-09-05T19:06:57.472Z,4.47
2017-09-05T19:09:25.151Z,4.40
2017-09-05T19:11:52.799Z,3.27
2017-09-05T19:14:20.466Z,5.10
2017-09-05T19:16:48.088Z,5.00
2017-09-05T19:19:15.705Z,5.63
2017-09-05T19:21:43.607Z,4.23
2017-09-05T19:24:11.251Z,4.83
2017-09-05T19:26:38.927Z,4.57
2017-09-05T19:29:06.718Z,4.70
2017-09-05T19:31:34.492Z,4.97
2017-09-05T19:34:02.137Z,5.53
2017-09-05T19:36:30.066Z,4.73
2017-09-05T19:38:57.880Z,4.80
2017-09-05T19:41:25.654Z,4.80
2017-09-05T19:43:53.328Z,5.17
2017-09-05T19:46:21.162Z,4.57
2017-09-05T19:48:48.846Z,5.17
2017-09-05T19:51:16.462Z,5.10
2017-09-05T19:53:44.086Z,4.93
2017-09-05T19:56:11.859Z,5.13
2017-09-05T19:58:39.494Z,4.80
2017-09-05T20:01:07.178Z,4.20
2017-09-05T20:03:34.817Z,4.70
2017-09-05T20:06:02.500Z,4.40
2017-09-05T20:08:30.173Z,5.47
2017-09-05T20:10:57.808Z,5.90
2017-09-05T20:13:25.469Z,4.77
2017-09-05T20:15:53.107Z,3.70
2017-09-05T20:18:20.870Z,4.00
2017-09-05T20:20:48.678Z,4.70
2017-09-05T20:23:16.460Z,5.40
2017-09-05T20:25:44.303Z,4.43
2017-09-05T20:28:12.218Z,5.20
2017-09-05T20:30:41.192Z,5.50
2017-09-05T20:33:09.242Z,5.60
2017-09-05T20:35:37.083Z,5.50
2017-09-05T20:38:04.768Z,5.00
2017-09-05T20:40:33.178Z,6.07
2017-09-05T20:43:01.096Z,5.90
2017-09-05T20:45:28.763Z,4.60
2017-09-05T20:47:56.388Z,5.27
2017-09-05T20:50:24.065Z,4.63
2017-09-05T20:52:51.707Z,5.50
2017-09-05T20:55:19.344Z,5.20
2017-09-05T20:57:47.006Z,3.97
2017-09-05T21:00:14.655Z,5.20
2017-09-05T21:02:42.310Z,4.87
2017-09-05T21:05:10.113Z,5.37
2017-09-05T21:07:37.878Z,4.40
2017-09-05T21:10:05.534Z,4.23
2017-09-05T21:12:33.162Z,4.43
2017-09-05T21:15:00.878Z,5.10
2017-09-05T21:17:28.505Z,6.40
2017-09-05T21:19:56.204Z,5.83
2017-09-05T21:22:23.859Z,5.40
2017-09-05T21:24:51.612Z,4.73
2017-09-05T21:27:19.374Z,4.40
2017-09-05T21:29:47.067Z,4.33
2017-09-05T21:32:14.735Z,4.93
2017-09-05T21:34:42.492Z,4.60
2017-09-05T21:37:10.330Z,5.53
2017-09-05T21:39:37.989Z,5.03
2017-09-05T21:42:05.717Z,5.03
2017-09-05T21:44:33.417Z,6.43
2017-09-05T21:47:01.218Z,4.00
2017-09-05T21:49:28.865Z,4.70
2017-09-05T21:51:56.508Z,3.87
2017-09-05T21:54:24.141Z,6.23
2017-09-05T21:56:51.779Z,4.80
2017-09-05T21:59:19.737Z,5.00
2017-09-05T22:01:47.450Z,4.00
2017-09-05T22:04:15.292Z,5.63
2017-09-05T22:06:43.677Z,6.00
2017-09-05T22:09:11.430Z,6.03
2017-09-05T22:11:39.158Z,4.20
2017-09-05T22:14:12.381Z,5.53
2017-09-05T22:16:40.916Z,6.27
2017-09-05T22:19:14.517Z,3.93
2017-09-05T22:21:42.387Z,6.17
2017-09-05T22:24:10.396Z,4.50
2017-09-05T22:26:43.995Z,5.70
2017-09-05T22:29:11.621Z,4.07
2017-09-05T22:31:39.249Z,5.07
2017-09-05T22:34:06.915Z,4.87
2017-09-05T22:36:34.573Z,4.60
2017-09-05T22:39:02.250Z,6.20
2017-09-05T22:41:29.880Z,5.57
2017-09-05T22:43:57.530Z,4.40
2017-09-05T22:46:25.200Z,5.30
2017-09-05T22:48:52.830Z,4.80
2017-09-05T22:51:20.500Z,4.30
2017-09-05T22:53:48.143Z,4.60
2017-09-05T22:56:15.888Z,5.40
2017-09-05T22:58:43.528Z,5.83
2017-09-05T23:01:11.315Z,5.37
2017-09-05T23:03:38.980Z,4.30
2017-09-05T23:06:06.607Z,5.17
2017-09-05T23:08:34.272Z,4.87
2017-09-05T23:11:01.981Z,5.47
2017-09-05T23:13:29.591Z,4.87
2017-09-05T23:15:57.248Z,4.70
2017-09-05T23:18:24.948Z,5.50
2017-09-05T23:20:52.578Z,4.90
2017-09-05T23:23:21.089Z,4.97
2017-09-05T23:25:48.722Z,3.90
2017-09-05T23:28:16.384Z,5.00
2017-09-05T23:30:44.021Z,5.33
2017-09-05T23:33:11.653Z,5.57
2017-09-05T23:35:39.400Z,3.77
2017-09-05T23:38:07.058Z,4.73
2017-09-05T23:40:34.824Z,4.77
2017-09-05T23:43:02.453Z,4.97
2017-09-05T23:45:30.181Z,4.33
2017-09-05T23:47:57.867Z,5.13
2017-09-05T23:50:25.545Z,5.80
2017-09-05T23:52:53.211Z,5.87
2017-09-05T23:55:20.895Z,6.87
2017-09-05T23:57:48.663Z,6.90
